createdAt,value
2023-02-11T00:02:53.349Z,73.30
2023-02-11T00:06:01.254Z,71.49
2023-02-11T00:09:05.640Z,69.82
2023-02-11T00:12:08.706Z,71.23
2023-02-11T00:15:11.880Z,72.38
2023-02-11T00:18:15.544Z,73.16
2023-02-11T00:21:21.738Z,73.47
2023-02-11T00:24:24.741Z,74.30
2023-02-11T00:27:29.537Z,73.21
2023-02-11T00:30:32.780Z,72.51
2023-02-11T00:33:36.283Z,72.56
2023-02-11T00:36:39.446Z,73.19
2023-02-11T00:39:42.314Z,72.02
2023-02-11T00:42:45.641Z,71.49
2023-02-11T00:45:48.823Z,71.71
2023-02-11T00:48:53.407Z,72.51
2023-02-11T00:51:56.368Z,72.90
2023-02-11T00:54:59.218Z,72.63
2023-02-11T00:58:02.432Z,72.43
2023-02-11T01:01:05.397Z,72.79
2023-02-11T01:04:08.504Z,72.61
2023-02-11T01:07:11.319Z,72.65
2023-02-11T01:10:14.742Z,72.73
2023-02-11T01:13:17.818Z,72.22
2023-02-11T01:16:21.358Z,71.66
2023-02-11T01:19:24.330Z,71.67
2023-02-11T01:22:27.304Z,71.80
2023-02-11T01:25:30.245Z,71.65
2023-02-11T01:28:33.462Z,71.44
2023-02-11T01:31:36.541Z,71.37
2023-02-11T01:34:39.560Z,71.96
2023-02-11T01:37:42.506Z,71.94
2023-02-11T01:40:54.945Z,72.23
2023-02-11T01:43:58.199Z,72.36
2023-02-11T01:47:01.831Z,72.68
2023-02-11T01:50:04.992Z,72.76
2023-02-11T01:53:29.052Z,73.37
2023-02-11T01:56:53.535Z,73.66
2023-02-11T02:00:08.705Z,73.89
2023-02-11T02:03:19.664Z,74.05
2023-02-11T02:07:08.750Z,74.35
2023-02-11T02:10:19.325Z,74.38
2023-02-11T02:13:26.100Z,74.66
2023-02-11T02:16:36.206Z,74.79
2023-02-11T02:20:09.420Z,75.17
2023-02-11T02:23:25.106Z,74.97
2023-02-11T02:26:54.015Z,75.07
2023-02-11T02:30:31.011Z,75.17
2023-02-11T02:33:50.342Z,74.87
2023-02-11T02:37:09.661Z,74.72
2023-02-11T02:40:18.512Z,74.78
2023-02-11T02:43:23.848Z,74.53
2023-02-11T02:46:30.403Z,74.27
2023-02-11T02:49:33.274Z,74.17
2023-02-11T02:52:39.102Z,74.32
2023-02-11T02:55:54.777Z,74.20
2023-02-11T02:59:18.512Z,74.70
2023-02-11T03:02:26.986Z,74.35
2023-02-11T03:05:54.727Z,74.06
2023-02-11T03:09:01.833Z,74.30
2023-02-11T03:12:06.121Z,75.47
2023-02-11T03:15:10.552Z,73.59
2023-02-11T03:18:17.248Z,73.74
2023-02-11T03:21:21.590Z,74.51
2023-02-11T03:24:37.093Z,74.85
2023-02-11T03:28:10.130Z,75.14
2023-02-11T03:31:30.645Z,75.27
2023-02-11T03:34:44.181Z,75.13
2023-02-11T03:38:02.470Z,75.05
2023-02-11T03:41:08.013Z,74.89
2023-02-11T03:44:13.913Z,74.61
2023-02-11T03:47:21.371Z,74.41
2023-02-11T03:50:26.299Z,74.27
2023-02-11T03:53:29.071Z,74.15
2023-02-11T03:56:37.274Z,74.12
2023-02-11T03:59:51.825Z,73.77
2023-02-11T04:02:54.677Z,73.73
2023-02-11T04:05:57.587Z,74.39
2023-02-11T04:09:00.433Z,74.50
2023-02-11T04:12:03.415Z,74.40
2023-02-11T04:15:06.968Z,74.46
2023-02-11T04:18:09.891Z,74.67
2023-02-11T04:21:13.293Z,74.49
2023-02-11T04:24:16.135Z,74.44
2023-02-11T04:27:19.233Z,74.32
2023-02-11T04:30:22.188Z,74.13
2023-02-11T04:33:25.122Z,73.87
2023-02-11T04:36:28.072Z,74.30
2023-02-11T04:39:30.911Z,74.55
2023-02-11T04:42:33.838Z,74.83
2023-02-11T04:45:36.698Z,74.69
2023-02-11T04:48:39.785Z,74.57
2023-02-11T04:51:43.258Z,74.30
2023-02-11T04:54:46.028Z,74.08
2023-02-11T04:57:48.958Z,73.99
2023-02-11T05:00:52.154Z,74.03
2023-02-11T05:03:55.843Z,74.04
2023-02-11T05:06:58.830Z,73.96
2023-02-11T05:10:01.661Z,73.85
2023-02-11T05:13:04.570Z,73.75
2023-02-11T05:16:07.386Z,73.71
2023-02-11T05:19:10.493Z,73.79
2023-02-11T05:22:13.375Z,73.55
2023-02-11T05:25:16.196Z,73.25
2023-02-11T05:28:19.129Z,73.11
2023-02-11T05:31:21.946Z,72.97
2023-02-11T05:34:24.756Z,72.86
2023-02-11T05:37:27.587Z,72.92
2023-02-11T05:40:30.405Z,73.04
2023-02-11T05:43:35.417Z,73.21
2023-02-11T05:46:38.365Z,73.29
2023-02-11T05:49:41.482Z,73.25
2023-02-11T05:52:44.281Z,73.27
2023-02-11T05:55:47.299Z,73.38
2023-02-11T05:58:50.215Z,73.39
2023-02-11T06:01:53.034Z,73.50
2023-02-11T06:04:55.931Z,73.80
2023-02-11T06:07:58.942Z,73.92
2023-02-11T06:11:01.702Z,73.90
2023-02-11T06:14:04.728Z,74.03
2023-02-11T06:17:07.621Z,73.95
2023-02-11T06:20:11.068Z,73.98
2023-02-11T06:23:14.024Z,74.07
2023-02-11T06:26:21.334Z,73.85
2023-02-11T06:29:24.308Z,73.94
2023-02-11T06:32:45.640Z,73.50
2023-02-11T06:35:49.097Z,73.94
2023-02-11T06:38:52.627Z,73.94
2023-02-11T06:41:55.740Z,73.84
2023-02-11T06:44:58.652Z,73.63
2023-02-11T06:48:01.444Z,73.73
2023-02-11T06:51:06.758Z,73.59
2023-02-11T06:54:11.255Z,73.44
2023-02-11T06:57:14.090Z,73.28
2023-02-11T07:00:17.481Z,73.15
2023-02-11T07:03:20.374Z,73.12
2023-02-11T07:06:27.307Z,72.92
2023-02-11T07:09:30.467Z,72.76
2023-02-11T07:12:33.292Z,72.59
2023-02-11T07:15:37.694Z,72.46
2023-02-11T07:18:40.787Z,72.23
2023-02-11T07:21:43.777Z,71.86
2023-02-11T07:24:46.557Z,71.64
2023-02-11T07:27:50.358Z,71.28
2023-02-11T07:30:53.181Z,71.24
2023-02-11T07:33:59.953Z,70.97
2023-02-11T07:37:03.191Z,70.58
2023-02-11T07:40:07.752Z,70.46
2023-02-11T07:43:10.709Z,70.42
2023-02-11T07:46:20.496Z,70.03
2023-02-11T07:49:23.416Z,68.63
2023-02-11T07:52:30.162Z,66.39
2023-02-11T07:55:33.829Z,68.57
2023-02-11T07:58:37.153Z,68.30
2023-02-11T08:01:40.221Z,67.71
2023-02-11T08:04:43.076Z,67.47
2023-02-11T08:07:45.952Z,67.70
2023-02-11T08:10:49.164Z,67.92
2023-02-11T08:13:53.360Z,67.76
2023-02-11T08:16:56.222Z,67.64
2023-02-11T08:19:59.008Z,66.81
2023-02-11T08:23:02.297Z,66.68
2023-02-11T08:26:07.332Z,66.35
2023-02-11T08:29:14.169Z,65.73
2023-02-11T08:32:17.032Z,64.89
2023-02-11T08:35:19.881Z,63.91
2023-02-11T08:38:22.731Z,62.33
2023-02-11T08:41:26.620Z,62.01
2023-02-11T08:44:30.164Z,61.46
2023-02-11T08:47:33.449Z,60.56
2023-02-11T08:50:39.391Z,54.65
2023-02-11T08:53:42.652Z,54.59
2023-02-11T08:56:45.750Z,55.55
2023-02-11T08:59:48.670Z,55.67
2023-02-11T09:02:51.653Z,57.00
2023-02-11T09:05:54.946Z,57.23
2023-02-11T09:08:58.930Z,57.08
2023-02-11T09:12:01.885Z,57.76
2023-02-11T09:15:05.127Z,58.22
2023-02-11T09:18:07.961Z,57.68
2023-02-11T09:21:11.315Z,56.78
2023-02-11T09:24:14.418Z,57.75
2023-02-11T09:27:17.250Z,57.62
2023-02-11T09:30:21.530Z,57.23
2023-02-11T09:33:24.480Z,57.35
2023-02-11T09:36:30.221Z,57.14
2023-02-11T09:39:33.046Z,56.64
2023-02-11T09:42:53.134Z,55.96
2023-02-11T09:45:57.178Z,55.80
2023-02-11T09:49:00.791Z,55.92
2023-02-11T09:52:26.770Z,56.38
2023-02-11T09:55:42.933Z,56.02
2023-02-11T09:58:47.316Z,56.32
2023-02-11T10:02:02.656Z,56.25
2023-02-11T10:05:28.985Z,56.21
2023-02-11T10:08:50.247Z,56.48
2023-02-11T10:12:02.140Z,57.03
2023-02-11T10:15:27.468Z,57.33
2023-02-11T10:19:05.282Z,56.26
2023-02-11T10:22:36.253Z,56.78
2023-02-11T10:25:45.553Z,56.98
2023-02-11T10:28:52.467Z,56.66
2023-02-11T10:31:58.188Z,56.27
2023-02-11T10:35:10.529Z,55.97
2023-02-11T10:38:13.457Z,55.86
2023-02-11T10:41:35.191Z,55.07
2023-02-11T10:44:43.757Z,55.18
2023-02-11T10:47:46.556Z,55.76
2023-02-11T10:50:49.697Z,55.59
2023-02-11T10:54:08.451Z,55.47
2023-02-11T10:57:19.926Z,55.84
2023-02-11T11:00:43.201Z,55.86
2023-02-11T11:03:49.561Z,56.22
2023-02-11T11:06:52.561Z,57.16
2023-02-11T11:10:08.562Z,57.79
2023-02-11T11:13:23.420Z,58.27
2023-02-11T11:16:30.249Z,58.32
2023-02-11T11:19:39.372Z,57.63
2023-02-11T11:22:43.571Z,57.10
2023-02-11T11:26:01.329Z,57.38
2023-02-11T11:29:17.566Z,57.86
2023-02-11T11:32:29.239Z,57.38
2023-02-11T11:35:34.934Z,57.85
2023-02-11T11:38:44.585Z,57.87
2023-02-11T11:41:53.498Z,57.66
2023-02-11T11:45:00.992Z,57.80
2023-02-11T11:48:33.176Z,57.12
2023-02-11T11:51:39.964Z,56.24
2023-02-11T11:54:49.818Z,56.09
2023-02-11T11:57:52.898Z,56.02
2023-02-11T12:01:16.136Z,56.17
2023-02-11T12:04:21.907Z,55.82
2023-02-11T12:07:46.003Z,56.40
2023-02-11T12:10:58.198Z,56.69
2023-02-11T12:14:06.732Z,57.18
2023-02-11T12:17:27.225Z,57.83
2023-02-11T12:20:46.584Z,58.73
2023-02-11T12:23:55.558Z,59.81
2023-02-11T12:27:14.361Z,59.97
2023-02-11T12:30:46.028Z,60.71
2023-02-11T12:34:07.673Z,61.22
2023-02-11T12:37:22.978Z,61.02
2023-02-11T12:40:32.013Z,61.21
2023-02-11T12:43:40.969Z,61.88
2023-02-11T12:46:53.525Z,62.92
2023-02-11T12:50:05.826Z,60.70
2023-02-11T12:53:11.652Z,55.43
2023-02-11T12:56:14.451Z,55.86
2023-02-11T12:59:55.441Z,58.16
2023-02-11T13:03:12.783Z,60.67
2023-02-11T13:06:21.472Z,61.77
2023-02-11T13:09:30.723Z,64.73
2023-02-11T13:12:54.251Z,59.24
2023-02-11T13:16:08.463Z,53.62
2023-02-11T13:19:42.751Z,55.71
2023-02-11T13:22:57.263Z,59.20
2023-02-11T13:26:11.111Z,61.26
2023-02-11T13:29:20.305Z,62.99
2023-02-11T13:32:23.302Z,63.30
2023-02-11T13:35:33.063Z,58.84
2023-02-11T13:38:37.907Z,54.82
2023-02-11T13:41:41.943Z,57.32
2023-02-11T13:44:44.826Z,60.26
2023-02-11T13:47:52.413Z,62.72
2023-02-11T13:51:05.154Z,61.79
2023-02-11T13:54:17.853Z,59.20
2023-02-11T13:57:20.652Z,61.84
2023-02-11T14:00:36.898Z,64.28
2023-02-11T14:03:58.894Z,61.99
2023-02-11T14:07:49.680Z,60.68
2023-02-11T14:11:01.886Z,60.88
2023-02-11T14:14:27.973Z,61.25
2023-02-11T14:17:33.840Z,62.01
2023-02-11T14:20:45.793Z,62.04
2023-02-11T14:23:50.728Z,62.62
2023-02-11T14:27:00.836Z,62.37
2023-02-11T14:30:22.326Z,61.75
2023-02-11T14:34:02.529Z,58.80
2023-02-11T14:37:15.251Z,57.31
2023-02-11T14:40:48.161Z,59.97
2023-02-11T14:43:58.588Z,64.58
2023-02-11T14:47:01.907Z,61.08
2023-02-11T14:50:09.815Z,54.52
2023-02-11T14:53:16.980Z,56.93
2023-02-11T14:56:24.744Z,60.58
2023-02-11T14:59:27.628Z,64.10
2023-02-11T15:02:37.327Z,59.10
2023-02-11T15:05:40.505Z,55.96
2023-02-11T15:08:47.425Z,59.28
2023-02-11T15:11:52.413Z,62.75
2023-02-11T15:14:59.329Z,63.98
2023-02-11T15:18:04.445Z,57.89
2023-02-11T15:21:08.397Z,58.04
2023-02-11T15:24:26.696Z,62.60
2023-02-11T15:27:38.644Z,63.20
2023-02-11T15:30:42.025Z,59.18
2023-02-11T15:33:45.436Z,57.98
2023-02-11T15:36:48.430Z,62.14
2023-02-11T15:39:52.832Z,63.62
2023-02-11T15:42:58.944Z,59.61
2023-02-11T15:46:02.431Z,56.28
2023-02-11T15:49:06.732Z,58.78
2023-02-11T15:52:11.272Z,64.58
2023-02-11T15:55:16.505Z,62.81
2023-02-11T15:58:20.228Z,55.66
2023-02-11T16:01:36.298Z,57.61
2023-02-11T16:04:39.466Z,62.00
2023-02-11T16:07:49.959Z,67.39
2023-02-11T16:11:08.641Z,63.07
2023-02-11T16:14:30.319Z,56.08
2023-02-11T16:17:33.544Z,58.89
2023-02-11T16:20:37.013Z,65.47
2023-02-11T16:23:44.443Z,62.65
2023-02-11T16:26:53.169Z,63.05
2023-02-11T16:30:04.059Z,63.90
2023-02-11T16:33:10.797Z,64.32
2023-02-11T16:36:19.024Z,62.71
2023-02-11T16:39:23.028Z,59.52
2023-02-11T16:42:27.770Z,57.91
2023-02-11T16:45:39.279Z,60.95
2023-02-11T16:48:46.177Z,66.85
2023-02-11T16:51:52.662Z,67.42
2023-02-11T16:54:55.623Z,62.55
2023-02-11T16:57:58.900Z,61.01
2023-02-11T17:01:02.494Z,58.23
2023-02-11T17:04:07.094Z,60.43
2023-02-11T17:07:10.681Z,65.47
2023-02-11T17:10:20.210Z,65.20
2023-02-11T17:13:23.343Z,62.87
2023-02-11T17:16:27.890Z,59.67
2023-02-11T17:19:31.175Z,59.08
2023-02-11T17:22:34.647Z,64.41
2023-02-11T17:25:38.885Z,65.47
2023-02-11T17:28:42.398Z,61.06
2023-02-11T17:31:45.766Z,58.71
2023-02-11T17:34:49.197Z,63.16
2023-02-11T17:37:52.485Z,66.71
2023-02-11T17:41:00.433Z,63.17
2023-02-11T17:44:04.389Z,58.59
2023-02-11T17:47:07.945Z,60.32
2023-02-11T17:50:13.461Z,65.40
2023-02-11T17:53:16.951Z,62.97
2023-02-11T17:56:20.798Z,59.97
2023-02-11T17:59:24.177Z,58.62
2023-02-11T18:02:27.614Z,61.75
2023-02-11T18:05:36.552Z,66.29
2023-02-11T18:08:39.722Z,64.97
2023-02-11T18:11:43.097Z,59.99
2023-02-11T18:14:46.613Z,58.55
2023-02-11T18:17:49.977Z,63.22
2023-02-11T18:21:01.369Z,65.14
2023-02-11T18:24:06.997Z,62.49
2023-02-11T18:27:10.398Z,58.79
2023-02-11T18:30:20.799Z,59.69
2023-02-11T18:33:24.002Z,65.29
2023-02-11T18:36:27.340Z,62.93
2023-02-11T18:39:30.261Z,60.02
2023-02-11T18:42:36.065Z,57.09
2023-02-11T18:45:49.043Z,61.61
2023-02-11T18:48:55.847Z,66.20
2023-02-11T18:51:59.473Z,63.84
2023-02-11T18:55:25.936Z,61.32
2023-02-11T18:58:33.592Z,58.69
2023-02-11T19:01:42.655Z,59.88
2023-02-11T19:04:48.986Z,65.63
2023-02-11T19:07:55.549Z,63.92
2023-02-11T19:11:15.836Z,60.64
2023-02-11T19:14:28.522Z,58.93
2023-02-11T19:17:31.684Z,62.74
2023-02-11T19:20:34.683Z,65.98
2023-02-11T19:23:38.575Z,61.20
2023-02-11T19:26:42.756Z,58.18
2023-02-11T19:29:45.990Z,59.48
2023-02-11T19:32:52.634Z,65.28
2023-02-11T19:35:55.788Z,64.09
2023-02-11T19:39:02.880Z,61.36
2023-02-11T19:42:06.130Z,57.86
2023-02-11T19:45:10.360Z,58.26
2023-02-11T19:48:13.537Z,64.15
2023-02-11T19:51:17.540Z,64.77
2023-02-11T19:54:20.853Z,62.07
2023-02-11T19:57:24.113Z,59.76
2023-02-11T20:00:27.333Z,59.00
2023-02-11T20:03:30.394Z,64.16
2023-02-11T20:06:35.129Z,64.54
2023-02-11T20:09:38.513Z,62.08
2023-02-11T20:12:44.140Z,60.98
2023-02-11T20:16:06.842Z,59.24
2023-02-11T20:19:15.387Z,59.58
2023-02-11T20:22:18.447Z,66.12
2023-02-11T20:25:21.777Z,64.67
2023-02-11T20:28:25.114Z,61.18
2023-02-11T20:31:34.811Z,57.33
2023-02-11T20:34:37.793Z,58.99
2023-02-11T20:37:44.044Z,65.60
2023-02-11T20:40:47.356Z,64.70
2023-02-11T20:43:53.757Z,61.99
2023-02-11T20:46:56.799Z,59.18
2023-02-11T20:49:59.790Z,58.41
2023-02-11T20:53:02.978Z,64.44
2023-02-11T20:56:08.387Z,66.39
2023-02-11T20:59:14.043Z,65.57
2023-02-11T21:02:17.704Z,64.14
2023-02-11T21:05:20.620Z,65.57
2023-02-11T21:08:23.734Z,62.06
2023-02-11T21:11:26.798Z,57.88
2023-02-11T21:14:30.012Z,59.98
2023-02-11T21:17:33.292Z,67.49
2023-02-11T21:20:36.392Z,65.76
2023-02-11T21:23:43.168Z,61.16
2023-02-11T21:26:46.329Z,58.60
2023-02-11T21:29:54.562Z,55.33
2023-02-11T21:33:00.972Z,61.03
2023-02-11T21:36:07.904Z,65.61
2023-02-11T21:39:13.735Z,67.19
2023-02-11T21:42:17.897Z,62.47
2023-02-11T21:45:20.965Z,58.65
2023-02-11T21:48:25.801Z,57.72
2023-02-11T21:51:28.774Z,61.56
2023-02-11T21:54:32.350Z,66.41
2023-02-11T21:57:35.347Z,67.57
2023-02-11T22:00:38.596Z,64.34
2023-02-11T22:03:42.518Z,60.89
2023-02-11T22:06:45.432Z,59.90
2023-02-11T22:09:50.440Z,57.90
2023-02-11T22:12:53.418Z,59.80
2023-02-11T22:16:02.840Z,67.86
2023-02-11T22:19:07.620Z,65.67
2023-02-11T22:22:10.722Z,62.70
2023-02-11T22:25:13.704Z,58.84
2023-02-11T22:28:16.852Z,55.57
2023-02-11T22:31:29.458Z,58.97
2023-02-11T22:34:32.478Z,63.90
2023-02-11T22:37:35.386Z,68.54
2023-02-11T22:40:43.337Z,63.05
2023-02-11T22:43:46.713Z,60.20
2023-02-11T22:46:50.816Z,57.36
2023-02-11T22:49:53.965Z,58.21
2023-02-11T22:52:59.793Z,62.34
2023-02-11T22:56:15.032Z,69.10
2023-02-11T22:59:18.587Z,65.03
2023-02-11T23:02:21.853Z,61.09
2023-02-11T23:05:24.970Z,57.66
2023-02-11T23:08:29.224Z,57.60
2023-02-11T23:11:33.287Z,63.33
2023-02-11T23:14:36.213Z,67.54
2023-02-11T23:17:39.124Z,66.55
2023-02-11T23:20:43.943Z,61.21
2023-02-11T23:23:47.733Z,60.61
2023-02-11T23:26:51.238Z,60.71
2023-02-11T23:29:56.913Z,60.84
2023-02-11T23:32:59.784Z,61.08
2023-02-11T23:36:02.626Z,61.43
2023-02-11T23:39:05.935Z,61.60
2023-02-11T23:42:09.189Z,61.91
2023-02-11T23:45:12.338Z,62.96
2023-02-11T23:48:15.195Z,63.44
2023-02-11T23:51:19.574Z,65.72
2023-02-11T23:54:23.092Z,61.82
2023-02-11T23:57:25.992Z,58.69
